sensor_id;sensor_type;location;lat;lon;timestamp;pressure;altitude;pressure_sealevel;temperature;humidity
73870;BME280;64924;42.140;24.762;2023-02-28T00:00:24;100160.56;;;13.69;49.56
73870;BME280;64924;42.140;24.762;2023-02-28T00:02:50;100164.94;;;13.64;49.61
73870;BME280;64924;42.140;24.762;2023-02-28T00:05:19;100157.00;;;13.82;49.35
73870;BME280;64924;42.140;24.762;2023-02-28T00:07:46;100176.16;;;13.89;49.01
73870;BME280;64924;42.140;24.762;2023-02-28T00:10:14;100158.22;;;13.66;49.38
73870;BME280;64924;42.140;24.762;2023-02-28T00:12:41;100168.50;;;13.64;50.00
73870;BME280;64924;42.140;24.762;2023-02-28T00:15:10;100165.50;;;13.53;49.76
73870;BME280;64924;42.140;24.762;2023-02-28T00:17:36;100178.81;;;13.69;49.83
73870;BME280;64924;42.140;24.762;2023-02-28T00:20:02;100167.91;;;13.69;49.54
73870;BME280;64924;42.140;24.762;2023-02-28T00:22:30;100173.78;;;13.66;49.29
73870;BME280;64924;42.140;24.762;2023-02-28T00:24:55;100187.03;;;13.69;49.61
73870;BME280;64924;42.140;24.762;2023-02-28T00:27:21;100138.13;;;13.39;49.76
73870;BME280;64924;42.140;24.762;2023-02-28T00:29:47;100170.84;;;13.67;49.56
73870;BME280;64924;42.140;24.762;2023-02-28T00:32:13;100171.47;;;13.69;49.52
73870;BME280;64924;42.140;24.762;2023-02-28T00:34:39;100162.78;;;13.53;49.97
73870;BME280;64924;42.140;24.762;2023-02-28T00:37:06;100169.47;;;13.50;50.40
73870;BME280;64924;42.140;24.762;2023-02-28T00:39:36;100149.13;;;13.53;49.79
73870;BME280;64924;42.140;24.762;2023-02-28T00:42:02;100143.03;;;13.51;49.90
73870;BME280;64924;42.140;24.762;2023-02-28T00:44:29;100142.34;;;13.35;50.53
73870;BME280;64924;42.140;24.762;2023-02-28T00:46:54;100168.44;;;13.51;50.41
73870;BME280;64924;42.140;24.762;2023-02-28T00:49:22;100158.06;;;13.33;50.12
73870;BME280;64924;42.140;24.762;2023-02-28T00:51:48;100171.06;;;13.31;50.37
73870;BME280;64924;42.140;24.762;2023-02-28T00:54:13;100170.94;;;13.46;50.41
73870;BME280;64924;42.140;24.762;2023-02-28T00:56:39;100147.81;;;13.35;50.43
73870;BME280;64924;42.140;24.762;2023-02-28T00:59:04;100166.72;;;13.44;50.20
73870;BME280;64924;42.140;24.762;2023-02-28T01:01:30;100152.25;;;13.50;49.74
73870;BME280;64924;42.140;24.762;2023-02-28T01:03:55;100173.84;;;13.45;50.26
73870;BME280;64924;42.140;24.762;2023-02-28T01:06:21;100180.75;;;13.41;50.46
73870;BME280;64924;42.140;24.762;2023-02-28T01:08:46;100185.66;;;13.52;49.89
73870;BME280;64924;42.140;24.762;2023-02-28T01:11:13;100189.34;;;13.72;49.96
73870;BME280;64924;42.140;24.762;2023-02-28T01:13:41;100181.44;;;13.49;50.23
73870;BME280;64924;42.140;24.762;2023-02-28T01:16:06;100193.81;;;13.45;50.47
73870;BME280;64924;42.140;24.762;2023-02-28T01:18:32;100193.38;;;13.42;50.64
73870;BME280;64924;42.140;24.762;2023-02-28T01:20:58;100202.69;;;13.54;50.09
73870;BME280;64924;42.140;24.762;2023-02-28T01:23:23;100200.84;;;13.61;50.08
73870;BME280;64924;42.140;24.762;2023-02-28T01:25:52;100205.53;;;13.80;49.37
73870;BME280;64924;42.140;24.762;2023-02-28T01:28:18;100204.84;;;13.65;49.47
73870;BME280;64924;42.140;24.762;2023-02-28T01:30:48;100155.38;;;13.47;49.50
73870;BME280;64924;42.140;24.762;2023-02-28T01:33:13;100160.84;;;13.47;49.38
73870;BME280;64924;42.140;24.762;2023-02-28T01:35:39;100190.28;;;13.51;49.77
73870;BME280;64924;42.140;24.762;2023-02-28T01:38:04;100201.72;;;13.68;49.46
73870;BME280;64924;42.140;24.762;2023-02-28T01:40:30;100210.94;;;13.67;49.56
73870;BME280;64924;42.140;24.762;2023-02-28T01:42:55;100218.53;;;13.71;49.52
73870;BME280;64924;42.140;24.762;2023-02-28T01:47:52;100232.84;;;13.80;48.99
73870;BME280;64924;42.140;24.762;2023-02-28T01:50:22;100192.28;;;13.70;48.77
73870;BME280;64924;42.140;24.762;2023-02-28T01:52:49;100245.81;;;13.65;49.32
73870;BME280;64924;42.140;24.762;2023-02-28T01:55:17;100239.09;;;13.67;49.33
73870;BME280;64924;42.140;24.762;2023-02-28T01:57:48;100225.72;;;13.45;49.91
73870;BME280;64924;42.140;24.762;2023-02-28T02:00:14;100237.53;;;13.52;49.65
73870;BME280;64924;42.140;24.762;2023-02-28T02:02:49;100245.63;;;13.38;49.93
73870;BME280;64924;42.140;24.762;2023-02-28T02:05:19;100256.66;;;13.24;50.63
73870;BME280;64924;42.140;24.762;2023-02-28T02:07:46;100250.13;;;12.97;50.96
73870;BME280;64924;42.140;24.762;2023-02-28T02:10:44;100257.06;;;12.99;50.66
73870;BME280;64924;42.140;24.762;2023-02-28T02:27:25;100264.03;;;12.59;51.15
73870;BME280;64924;42.140;24.762;2023-02-28T02:30:02;100272.84;;;12.04;52.43
73870;BME280;64924;42.140;24.762;2023-02-28T02:35:37;100282.25;;;11.87;53.70
73870;BME280;64924;42.140;24.762;2023-02-28T02:38:10;100273.44;;;11.85;53.85
73870;BME280;64924;42.140;24.762;2023-02-28T02:40:44;100292.44;;;11.70;54.21
73870;BME280;64924;42.140;24.762;2023-02-28T02:43:24;100239.34;;;11.45;55.06
73870;BME280;64924;42.140;24.762;2023-02-28T02:45:59;100278.34;;;11.52;55.62
73870;BME280;64924;42.140;24.762;2023-02-28T02:48:31;100280.03;;;11.53;55.92
73870;BME280;64924;42.140;24.762;2023-02-28T02:51:01;100290.84;;;11.61;55.89
73870;BME280;64924;42.140;24.762;2023-02-28T02:53:35;100286.06;;;11.63;55.61
73870;BME280;64924;42.140;24.762;2023-02-28T02:56:03;100296.84;;;11.42;56.80
73870;BME280;64924;42.140;24.762;2023-02-28T02:58:35;100227.75;;;10.98;57.29
73870;BME280;64924;42.140;24.762;2023-02-28T03:01:08;100302.81;;;11.22;57.77
73870;BME280;64924;42.140;24.762;2023-02-28T03:03:36;100308.53;;;11.27;57.69
73870;BME280;64924;42.140;24.762;2023-02-28T03:06:02;100314.34;;;11.24;58.22
73870;BME280;64924;42.140;24.762;2023-02-28T03:08:31;100331.50;;;11.25;58.67
73870;BME280;64924;42.140;24.762;2023-02-28T03:11:01;100310.84;;;11.16;58.90
73870;BME280;64924;42.140;24.762;2023-02-28T03:19:31;100342.63;;;11.15;60.10
73870;BME280;64924;42.140;24.762;2023-02-28T03:24:37;100347.38;;;10.98;60.66
73870;BME280;64924;42.140;24.762;2023-02-28T03:27:47;100270.19;;;10.62;60.82
73870;BME280;64924;42.140;24.762;2023-02-28T03:32:44;100364.78;;;11.12;60.63
73870;BME280;64924;42.140;24.762;2023-02-28T03:35:24;100346.28;;;11.08;61.15
73870;BME280;64924;42.140;24.762;2023-02-28T03:37:55;100341.75;;;11.00;61.69
73870;BME280;64924;42.140;24.762;2023-02-28T03:40:27;100347.25;;;10.92;62.04
73870;BME280;64924;42.140;24.762;2023-02-28T03:42:59;100355.72;;;10.97;62.09
73870;BME280;64924;42.140;24.762;2023-02-28T03:45:29;100349.72;;;10.79;62.92
73870;BME280;64924;42.140;24.762;2023-02-28T03:48:00;100325.78;;;10.51;63.12
73870;BME280;64924;42.140;24.762;2023-02-28T03:50:42;100347.75;;;10.73;63.35
73870;BME280;64924;42.140;24.762;2023-02-28T03:55:44;100351.19;;;10.66;63.49
73870;BME280;64924;42.140;24.762;2023-02-28T03:58:33;100371.78;;;10.84;63.58
73870;BME280;64924;42.140;24.762;2023-02-28T04:01:09;100358.06;;;10.77;63.16
73870;BME280;64924;42.140;24.762;2023-02-28T04:03:37;100381.56;;;10.70;63.41
73870;BME280;64924;42.140;24.762;2023-02-28T04:06:04;100379.34;;;10.74;63.41
73870;BME280;64924;42.140;24.762;2023-02-28T04:08:31;100386.47;;;10.75;63.33
73870;BME280;64924;42.140;24.762;2023-02-28T04:11:01;100380.38;;;10.73;63.17
73870;BME280;64924;42.140;24.762;2023-02-28T04:13:28;100390.06;;;10.67;63.48
73870;BME280;64924;42.140;24.762;2023-02-28T04:15:53;100358.34;;;10.59;63.18
73870;BME280;64924;42.140;24.762;2023-02-28T04:18:19;100398.25;;;10.90;62.65
73870;BME280;64924;42.140;24.762;2023-02-28T04:20:44;100365.66;;;10.59;62.73
73870;BME280;64924;42.140;24.762;2023-02-28T04:23:10;100385.88;;;10.56;62.83
73870;BME280;64924;42.140;24.762;2023-02-28T04:25:35;100397.88;;;10.70;62.55
73870;BME280;64924;42.140;24.762;2023-02-28T04:28:01;100379.25;;;10.59;62.17
73870;BME280;64924;42.140;24.762;2023-02-28T04:30:26;100404.81;;;10.73;62.59
73870;BME280;64924;42.140;24.762;2023-02-28T04:32:52;100409.41;;;10.72;62.50
73870;BME280;64924;42.140;24.762;2023-02-28T04:35:17;100397.69;;;10.71;62.49
73870;BME280;64924;42.140;24.762;2023-02-28T04:37:43;100410.28;;;10.64;62.46
73870;BME280;64924;42.140;24.762;2023-02-28T04:40:08;100399.44;;;10.64;62.74
73870;BME280;64924;42.140;24.762;2023-02-28T04:42:34;100396.91;;;10.55;62.64
73870;BME280;64924;42.140;24.762;2023-02-28T04:45:04;100389.94;;;10.60;62.59
73870;BME280;64924;42.140;24.762;2023-02-28T04:47:29;100393.50;;;10.61;62.45
73870;BME280;64924;42.140;24.762;2023-02-28T04:49:55;100380.72;;;10.38;62.59
73870;BME280;64924;42.140;24.762;2023-02-28T04:52:21;100401.97;;;10.66;62.16
73870;BME280;64924;42.140;24.762;2023-02-28T04:54:46;100392.63;;;10.68;61.71
73870;BME280;64924;42.140;24.762;2023-02-28T04:57:12;100403.44;;;10.77;61.34
73870;BME280;64924;42.140;24.762;2023-02-28T04:59:37;100387.56;;;10.57;61.43
73870;BME280;64924;42.140;24.762;2023-02-28T05:02:03;100411.31;;;10.63;61.91
73870;BME280;64924;42.140;24.762;2023-02-28T05:04:35;100380.75;;;10.30;61.88
73870;BME280;64924;42.140;24.762;2023-02-28T05:07:01;100433.13;;;10.47;61.92
73870;BME280;64924;42.140;24.762;2023-02-28T05:09:27;100431.75;;;10.51;62.10
73870;BME280;64924;42.140;24.762;2023-02-28T05:11:53;100433.06;;;10.63;61.48
73870;BME280;64924;42.140;24.762;2023-02-28T05:14:19;100441.34;;;10.31;62.03
73870;BME280;64924;42.140;24.762;2023-02-28T05:16:44;100440.81;;;10.35;62.36
73870;BME280;64924;42.140;24.762;2023-02-28T05:19:10;100436.59;;;10.33;61.97
73870;BME280;64924;42.140;24.762;2023-02-28T05:21:38;100443.75;;;10.26;62.46
73870;BME280;64924;42.140;24.762;2023-02-28T05:24:14;100436.41;;;10.18;62.59
73870;BME280;64924;42.140;24.762;2023-02-28T05:26:41;100382.06;;;9.87;62.45
73870;BME280;64924;42.140;24.762;2023-02-28T05:29:08;100437.13;;;10.28;62.37
73870;BME280;64924;42.140;24.762;2023-02-28T05:31:34;100440.34;;;10.24;62.20
73870;BME280;64924;42.140;24.762;2023-02-28T05:34:00;100448.31;;;10.33;61.93
73870;BME280;64924;42.140;24.762;2023-02-28T05:36:26;100455.97;;;10.22;62.39
73870;BME280;64924;42.140;24.762;2023-02-28T05:38:51;100459.28;;;10.40;61.93
73870;BME280;64924;42.140;24.762;2023-02-28T05:41:19;100465.78;;;10.39;61.67
73870;BME280;64924;42.140;24.762;2023-02-28T05:43:45;100457.00;;;10.21;62.48
73870;BME280;64924;42.140;24.762;2023-02-28T05:46:12;100467.81;;;10.37;61.93
73870;BME280;64924;42.140;24.762;2023-02-28T05:48:38;100487.88;;;10.20;62.22
73870;BME280;64924;42.140;24.762;2023-02-28T05:51:05;100472.94;;;10.24;62.16
73870;BME280;64924;42.140;24.762;2023-02-28T05:53:31;100437.69;;;9.99;62.11
73870;BME280;64924;42.140;24.762;2023-02-28T05:55:57;100481.06;;;10.07;62.40
73870;BME280;64924;42.140;24.762;2023-02-28T05:58:23;100455.50;;;9.94;62.67
73870;BME280;64924;42.140;24.762;2023-02-28T06:00:50;100472.25;;;10.14;62.33
73870;BME280;64924;42.140;24.762;2023-02-28T06:03:16;100488.03;;;10.26;62.14
73870;BME280;64924;42.140;24.762;2023-02-28T06:05:41;100504.31;;;10.18;62.33
73870;BME280;64924;42.140;24.762;2023-02-28T06:08:06;100501.09;;;10.15;62.29
73870;BME280;64924;42.140;24.762;2023-02-28T06:10:34;100468.56;;;9.98;62.38
73870;BME280;64924;42.140;24.762;2023-02-28T06:13:00;100497.53;;;10.22;62.22
73870;BME280;64924;42.140;24.762;2023-02-28T06:15:28;100501.97;;;10.23;62.09
73870;BME280;64924;42.140;24.762;2023-02-28T06:17:54;100495.66;;;10.15;62.30
73870;BME280;64924;42.140;24.762;2023-02-28T06:20:22;100466.69;;;9.99;61.90
73870;BME280;64924;42.140;24.762;2023-02-28T06:22:48;100459.56;;;9.90;62.35
73870;BME280;64924;42.140;24.762;2023-02-28T06:25:15;100486.50;;;10.16;62.20
73870;BME280;64924;42.140;24.762;2023-02-28T06:27:41;100500.44;;;10.21;62.02
73870;BME280;64924;42.140;24.762;2023-02-28T06:30:07;100492.28;;;10.21;62.30
73870;BME280;64924;42.140;24.762;2023-02-28T06:32:32;100452.63;;;9.79;62.81
73870;BME280;64924;42.140;24.762;2023-02-28T06:34:58;100516.03;;;10.02;62.65
73870;BME280;64924;42.140;24.762;2023-02-28T06:37:23;100502.44;;;10.19;62.46
73870;BME280;64924;42.140;24.762;2023-02-28T06:39:51;100512.97;;;10.30;61.93
73870;BME280;64924;42.140;24.762;2023-02-28T06:42:17;100497.00;;;10.19;62.19
73870;BME280;64924;42.140;24.762;2023-02-28T06:44:43;100511.44;;;10.11;62.70
73870;BME280;64924;42.140;24.762;2023-02-28T06:47:08;100495.84;;;10.13;62.52
73870;BME280;64924;42.140;24.762;2023-02-28T06:49:35;100503.16;;;10.21;62.44
73870;BME280;64924;42.140;24.762;2023-02-28T06:52:01;100499.59;;;10.20;62.41
73870;BME280;64924;42.140;24.762;2023-02-28T06:54:26;100504.16;;;10.28;62.27
73870;BME280;64924;42.140;24.762;2023-02-28T06:56:52;100463.56;;;10.18;61.63
73870;BME280;64924;42.140;24.762;2023-02-28T06:59:19;100532.44;;;10.50;61.54
73870;BME280;64924;42.140;24.762;2023-02-28T07:01:45;100478.53;;;10.14;61.59
73870;BME280;64924;42.140;24.762;2023-02-28T07:04:10;100518.06;;;10.33;61.66
73870;BME280;64924;42.140;24.762;2023-02-28T07:06:36;100524.53;;;10.24;62.32
73870;BME280;64924;42.140;24.762;2023-02-28T07:09:01;100515.53;;;10.31;61.94
73870;BME280;64924;42.140;24.762;2023-02-28T07:11:28;100525.03;;;10.35;61.83
73870;BME280;64924;42.140;24.762;2023-02-28T07:13:54;100512.97;;;10.38;61.59
73870;BME280;64924;42.140;24.762;2023-02-28T07:16:20;100523.47;;;10.41;61.58
73870;BME280;64924;42.140;24.762;2023-02-28T07:18:47;100518.06;;;10.33;61.64
73870;BME280;64924;42.140;24.762;2023-02-28T07:21:12;100516.72;;;10.21;62.16
73870;BME280;64924;42.140;24.762;2023-02-28T07:23:38;100524.50;;;10.16;62.14
73870;BME280;64924;42.140;24.762;2023-02-28T07:26:05;100536.75;;;10.20;62.35
73870;BME280;64924;42.140;24.762;2023-02-28T07:28:31;100531.31;;;10.20;62.29
73870;BME280;64924;42.140;24.762;2023-02-28T07:31:03;100525.88;;;10.12;62.39
73870;BME280;64924;42.140;24.762;2023-02-28T07:33:29;100535.38;;;10.16;62.38
73870;BME280;64924;42.140;24.762;2023-02-28T07:36:04;100546.25;;;10.24;62.44
73870;BME280;64924;42.140;24.762;2023-02-28T07:38:30;100543.19;;;10.11;62.65
73870;BME280;64924;42.140;24.762;2023-02-28T07:40:55;100538.81;;;10.01;63.08
73870;BME280;64924;42.140;24.762;2023-02-28T07:43:21;100533.38;;;10.01;62.74
73870;BME280;64924;42.140;24.762;2023-02-28T07:45:46;100505.38;;;9.85;62.79
73870;BME280;64924;42.140;24.762;2023-02-28T07:48:12;100538.63;;;9.95;62.92
73870;BME280;64924;42.140;24.762;2023-02-28T07:50:37;100536.56;;;10.05;62.73
73870;BME280;64924;42.140;24.762;2023-02-28T07:53:03;100530.13;;;10.06;62.91
73870;BME280;64924;42.140;24.762;2023-02-28T07:55:29;100528.44;;;9.97;62.74
73870;BME280;64924;42.140;24.762;2023-02-28T07:57:57;100514.34;;;10.10;62.67
73870;BME280;64924;42.140;24.762;2023-02-28T08:00:22;100523.84;;;10.14;62.49
73870;BME280;64924;42.140;24.762;2023-02-28T08:02:48;100548.09;;;10.07;62.86
73870;BME280;64924;42.140;24.762;2023-02-28T08:05:14;100537.44;;;9.89;63.48
73870;BME280;64924;42.140;24.762;2023-02-28T08:07:39;100539.81;;;9.84;63.92
73870;BME280;64924;42.140;24.762;2023-02-28T08:10:05;100546.75;;;10.03;63.15
73870;BME280;64924;42.140;24.762;2023-02-28T08:12:31;100553.22;;;9.94;63.52
73870;BME280;64924;42.140;24.762;2023-02-28T08:14:56;100501.31;;;9.89;63.04
73870;BME280;64924;42.140;24.762;2023-02-28T08:17:22;100538.13;;;10.24;62.32
73870;BME280;64924;42.140;24.762;2023-02-28T08:19:47;100526.41;;;10.23;62.29
73870;BME280;64924;42.140;24.762;2023-02-28T08:22:13;100524.88;;;10.21;62.08
73870;BME280;64924;42.140;24.762;2023-02-28T08:24:40;100528.75;;;10.18;62.46
73870;BME280;64924;42.140;24.762;2023-02-28T08:27:06;100554.91;;;10.35;62.47
73870;BME280;64924;42.140;24.762;2023-02-28T08:29:32;100551.53;;;10.25;62.11
73870;BME280;64924;42.140;24.762;2023-02-28T08:31:57;100550.34;;;10.28;62.71
73870;BME280;64924;42.140;24.762;2023-02-28T08:34:24;100533.50;;;10.16;62.60
73870;BME280;64924;42.140;24.762;2023-02-28T08:36:49;100535.03;;;10.19;62.91
73870;BME280;64924;42.140;24.762;2023-02-28T08:39:15;100539.13;;;10.31;62.69
73870;BME280;64924;42.140;24.762;2023-02-28T08:41:42;100518.41;;;10.14;62.09
73870;BME280;64924;42.140;24.762;2023-02-28T08:44:07;100553.88;;;10.36;62.21
73870;BME280;64924;42.140;24.762;2023-02-28T08:46:33;100548.91;;;10.48;62.07
73870;BME280;64924;42.140;24.762;2023-02-28T08:48:58;100545.50;;;10.62;61.66
73870;BME280;64924;42.140;24.762;2023-02-28T08:51:25;100542.44;;;10.65;61.26
73870;BME280;64924;42.140;24.762;2023-02-28T08:53:59;100544.19;;;10.89;60.48
73870;BME280;64924;42.140;24.762;2023-02-28T08:56:26;100545.91;;;10.82;60.79
73870;BME280;64924;42.140;24.762;2023-02-28T08:58:55;100553.19;;;10.98;60.42
73870;BME280;64924;42.140;24.762;2023-02-28T09:01:28;100515.16;;;10.82;59.92
73870;BME280;64924;42.140;24.762;2023-02-28T09:03:55;100552.72;;;10.78;61.04
73870;BME280;64924;42.140;24.762;2023-02-28T09:06:23;100489.53;;;10.37;60.86
73870;BME280;64924;42.140;24.762;2023-02-28T09:08:49;100558.38;;;10.68;61.13
73870;BME280;64924;42.140;24.762;2023-02-28T09:11:15;100564.00;;;10.67;61.09
73870;BME280;64924;42.140;24.762;2023-02-28T09:13:41;100553.69;;;10.46;61.64
73870;BME280;64924;42.140;24.762;2023-02-28T09:16:10;100549.25;;;10.45;61.46
73870;BME280;64924;42.140;24.762;2023-02-28T09:18:37;100564.50;;;10.62;61.36
73870;BME280;64924;42.140;24.762;2023-02-28T09:21:04;100553.34;;;10.49;61.90
73870;BME280;64924;42.140;24.762;2023-02-28T09:23:30;100535.72;;;10.29;61.97
73870;BME280;64924;42.140;24.762;2023-02-28T09:25:57;100545.56;;;10.38;62.02
73870;BME280;64924;42.140;24.762;2023-02-28T09:28:23;100539.63;;;10.18;62.34
73870;BME280;64924;42.140;24.762;2023-02-28T09:30:51;100549.97;;;10.39;61.96
73870;BME280;64924;42.140;24.762;2023-02-28T09:33:18;100538.13;;;10.24;62.62
73870;BME280;64924;42.140;24.762;2023-02-28T09:35:47;100501.25;;;10.13;62.26
73870;BME280;64924;42.140;24.762;2023-02-28T09:38:12;100529.44;;;10.28;62.19
73870;BME280;64924;42.140;24.762;2023-02-28T09:40:47;100531.81;;;10.40;62.33
73870;BME280;64924;42.140;24.762;2023-02-28T09:43:15;100540.13;;;10.38;62.71
73870;BME280;64924;42.140;24.762;2023-02-28T09:45:48;100529.78;;;10.25;62.67
73870;BME280;64924;42.140;24.762;2023-02-28T09:48:21;100523.16;;;10.36;62.45
73870;BME280;64924;42.140;24.762;2023-02-28T09:50:52;100545.69;;;10.45;62.08
73870;BME280;64924;42.140;24.762;2023-02-28T09:53:28;100513.28;;;10.43;61.76
73870;BME280;64924;42.140;24.762;2023-02-28T09:56:02;100495.31;;;10.18;62.11
73870;BME280;64924;42.140;24.762;2023-02-28T09:58:49;100535.34;;;10.48;62.00
73870;BME280;64924;42.140;24.762;2023-02-28T10:06:58;100497.72;;;10.21;62.96
73870;BME280;64924;42.140;24.762;2023-02-28T10:09:30;100482.91;;;10.40;62.52
73870;BME280;64924;42.140;24.762;2023-02-28T10:12:03;100505.34;;;10.33;62.82
73870;BME280;64924;42.140;24.762;2023-02-28T10:14:32;100503.47;;;10.34;62.71
73870;BME280;64924;42.140;24.762;2023-02-28T10:17:06;100468.50;;;10.15;62.50
73870;BME280;64924;42.140;24.762;2023-02-28T10:22:59;100507.22;;;10.25;63.42
73870;BME280;64924;42.140;24.762;2023-02-28T10:25:34;100448.72;;;9.98;63.28
73870;BME280;64924;42.140;24.762;2023-02-28T10:28:11;100450.00;;;10.10;63.14
73870;BME280;64924;42.140;24.762;2023-02-28T10:30:41;100487.19;;;10.26;63.04
73870;BME280;64924;42.140;24.762;2023-02-28T10:33:21;100494.50;;;10.25;63.39
73870;BME280;64924;42.140;24.762;2023-02-28T10:35:48;100482.25;;;10.13;63.35
73870;BME280;64924;42.140;24.762;2023-02-28T10:38:25;100482.38;;;10.44;62.48
73870;BME280;64924;42.140;24.762;2023-02-28T10:43:30;100480.41;;;10.30;62.86
73870;BME280;64924;42.140;24.762;2023-02-28T10:48:39;100493.06;;;10.46;62.41
73870;BME280;64924;42.140;24.762;2023-02-28T10:51:08;100483.09;;;10.30;62.65
73870;BME280;64924;42.140;24.762;2023-02-28T10:53:54;100461.72;;;10.11;63.11
73870;BME280;64924;42.140;24.762;2023-02-28T10:56:24;100490.56;;;10.12;63.33
73870;BME280;64924;42.140;24.762;2023-02-28T11:03:59;100464.44;;;10.11;63.28
73870;BME280;64924;42.140;24.762;2023-02-28T11:06:33;100464.13;;;10.22;63.19
73870;BME280;64924;42.140;24.762;2023-02-28T11:09:02;100481.25;;;10.22;63.09
73870;BME280;64924;42.140;24.762;2023-02-28T11:11:31;100470.19;;;10.16;63.31
73870;BME280;64924;42.140;24.762;2023-02-28T11:14:20;100489.56;;;10.13;63.44
73870;BME280;64924;42.140;24.762;2023-02-28T11:16:47;100476.03;;;9.80;64.62
73870;BME280;64924;42.140;24.762;2023-02-28T11:19:20;100463.31;;;9.81;64.55
73870;BME280;64924;42.140;24.762;2023-02-28T11:21:53;100468.72;;;9.89;64.58
73870;BME280;64924;42.140;24.762;2023-02-28T11:24:27;100474.66;;;9.92;64.57
73870;BME280;64924;42.140;24.762;2023-02-28T11:26:54;100413.97;;;9.69;64.80
73870;BME280;64924;42.140;24.762;2023-02-28T11:29:25;100463.09;;;10.06;64.92
73870;BME280;64924;42.140;24.762;2023-02-28T11:32:12;100459.50;;;10.14;64.91
73870;BME280;64924;42.140;24.762;2023-02-28T11:34:39;100469.38;;;10.07;65.49
73870;BME280;64924;42.140;24.762;2023-02-28T11:37:11;100471.91;;;10.09;65.67
73870;BME280;64924;42.140;24.762;2023-02-28T11:39:37;100459.91;;;9.95;66.10
73870;BME280;64924;42.140;24.762;2023-02-28T11:45:15;100463.81;;;9.92;66.38
73870;BME280;64924;42.140;24.762;2023-02-28T11:50:52;100425.00;;;9.59;67.39
73870;BME280;64924;42.140;24.762;2023-02-28T11:56:33;100458.19;;;10.02;67.39
73870;BME280;64924;42.140;24.762;2023-02-28T12:01:58;100460.72;;;10.20;66.56
73870;BME280;64924;42.140;24.762;2023-02-28T12:07:50;100452.97;;;9.92;67.08
73870;BME280;64924;42.140;24.762;2023-02-28T12:10:24;100410.41;;;9.68;67.61
73870;BME280;64924;42.140;24.762;2023-02-28T12:15:48;100389.56;;;9.61;67.82
73870;BME280;64924;42.140;24.762;2023-02-28T12:28:50;100443.28;;;9.98;67.29
73870;BME280;64924;42.140;24.762;2023-02-28T12:31:23;100446.09;;;10.13;67.33
73870;BME280;64924;42.140;24.762;2023-02-28T12:33:56;100445.16;;;9.97;67.39
73870;BME280;64924;42.140;24.762;2023-02-28T12:36:24;100447.53;;;9.84;67.68
73870;BME280;64924;42.140;24.762;2023-02-28T12:38:56;100432.78;;;9.79;68.10
73870;BME280;64924;42.140;24.762;2023-02-28T12:44:37;100438.88;;;9.89;68.09
73870;BME280;64924;42.140;24.762;2023-02-28T12:47:13;100419.53;;;9.92;67.75
73870;BME280;64924;42.140;24.762;2023-02-28T12:49:46;100422.59;;;9.97;67.62
73870;BME280;64924;42.140;24.762;2023-02-28T12:52:18;100394.78;;;9.70;67.84
73870;BME280;64924;42.140;24.762;2023-02-28T12:55:03;100420.72;;;9.89;67.68
73870;BME280;64924;42.140;24.762;2023-02-28T12:57:43;100418.38;;;9.78;67.61
73870;BME280;64924;42.140;24.762;2023-02-28T13:00:18;100402.81;;;9.64;68.23
73870;BME280;64924;42.140;24.762;2023-02-28T13:11:24;100405.63;;;9.87;67.59
73870;BME280;64924;42.140;24.762;2023-02-28T13:13:57;100419.69;;;9.98;67.92
73870;BME280;64924;42.140;24.762;2023-02-28T13:16:24;100415.97;;;9.83;68.22
73870;BME280;64924;42.140;24.762;2023-02-28T13:18:49;100431.56;;;9.97;67.99
73870;BME280;64924;42.140;24.762;2023-02-28T13:21:24;100418.50;;;10.01;68.27
73870;BME280;64924;42.140;24.762;2023-02-28T13:26:21;100419.41;;;9.53;69.83
73870;BME280;64924;42.140;24.762;2023-02-28T13:40:06;100388.56;;;9.54;70.55
73870;BME280;64924;42.140;24.762;2023-02-28T13:42:37;100404.28;;;9.66;70.69
73870;BME280;64924;42.140;24.762;2023-02-28T13:47:44;100401.09;;;9.63;70.65
73870;BME280;64924;42.140;24.762;2023-02-28T13:58:49;100408.69;;;9.92;69.92
73870;BME280;64924;42.140;24.762;2023-02-28T14:07:19;100420.06;;;9.71;70.26
73870;BME280;64924;42.140;24.762;2023-02-28T14:09:57;100421.41;;;9.83;70.35
73870;BME280;64924;42.140;24.762;2023-02-28T14:17:56;100404.78;;;9.78;70.66
73870;BME280;64924;42.140;24.762;2023-02-28T14:20:27;100432.94;;;9.85;70.56
73870;BME280;64924;42.140;24.762;2023-02-28T14:23:10;100423.59;;;9.96;70.04
73870;BME280;64924;42.140;24.762;2023-02-28T14:32:00;100391.19;;;9.94;69.63
73870;BME280;64924;42.140;24.762;2023-02-28T14:34:44;100430.31;;;10.16;69.32
73870;BME280;64924;42.140;24.762;2023-02-28T14:37:19;100392.03;;;9.95;69.21
73870;BME280;64924;42.140;24.762;2023-02-28T14:39:46;100430.50;;;10.15;69.22
73870;BME280;64924;42.140;24.762;2023-02-28T14:42:37;100420.97;;;10.19;69.13
73870;BME280;64924;42.140;24.762;2023-02-28T14:45:20;100375.28;;;9.83;69.42
73870;BME280;64924;42.140;24.762;2023-02-28T14:47:47;100421.72;;;9.96;69.95
73870;BME280;64924;42.140;24.762;2023-02-28T14:50:18;100413.91;;;10.01;69.79
73870;BME280;64924;42.140;24.762;2023-02-28T14:52:44;100417.84;;;9.91;70.21
73870;BME280;64924;42.140;24.762;2023-02-28T14:55:14;100383.25;;;9.85;70.24
73870;BME280;64924;42.140;24.762;2023-02-28T14:57:51;100393.91;;;9.94;70.30
73870;BME280;64924;42.140;24.762;2023-02-28T15:00:25;100436.09;;;10.13;70.33
73870;BME280;64924;42.140;24.762;2023-02-28T15:02:52;100445.16;;;9.97;70.47
73870;BME280;64924;42.140;24.762;2023-02-28T15:05:30;100409.53;;;9.84;70.39
73870;BME280;64924;42.140;24.762;2023-02-28T15:08:15;100445.16;;;9.89;70.97